createdAt,value
2018-07-23T00:01:53.280Z,21.00
2018-07-23T00:04:21.987Z,20.90
2018-07-23T00:06:51.332Z,20.90
2018-07-23T00:09:20.226Z,20.90
2018-07-23T00:11:49.032Z,20.90
2018-07-23T00:14:17.705Z,20.80
2018-07-23T00:16:47.219Z,20.80
2018-07-23T00:19:16.016Z,20.80
2018-07-23T00:21:45.000Z,20.70
2018-07-23T00:24:13.887Z,20.80
2018-07-23T00:26:43.027Z,20.80
2018-07-23T00:29:11.945Z,20.80
2018-07-23T00:31:40.583Z,20.80
2018-07-23T00:34:10.046Z,20.80
2018-07-23T00:36:38.859Z,20.80
2018-07-23T00:39:08.526Z,20.70
2018-07-23T00:41:37.505Z,20.60
2018-07-23T00:44:06.456Z,20.60
2018-07-23T00:46:35.294Z,20.70
2018-07-23T00:49:04.342Z,20.60
2018-07-23T00:51:33.200Z,20.60
2018-07-23T00:54:01.982Z,20.60
2018-07-23T00:56:30.811Z,20.60
2018-07-23T00:58:59.622Z,20.50
2018-07-23T01:01:28.365Z,20.40
2018-07-23T01:03:57.133Z,20.30
2018-07-23T01:06:26.041Z,20.30
2018-07-23T01:08:54.833Z,20.40
2018-07-23T01:11:23.558Z,20.40
2018-07-23T01:13:53.262Z,20.40
2018-07-23T01:16:22.020Z,20.40
2018-07-23T01:18:50.751Z,20.40
2018-07-23T01:21:19.462Z,20.40
2018-07-23T01:23:48.283Z,20.40
2018-07-23T01:26:17.090Z,20.40
2018-07-23T01:28:46.674Z,20.50
2018-07-23T01:31:15.358Z,20.40
2018-07-23T01:33:44.059Z,20.40
2018-07-23T01:36:12.929Z,20.40
2018-07-23T01:38:41.641Z,20.40
2018-07-23T01:41:10.493Z,20.40
2018-07-23T01:43:39.246Z,20.40
2018-07-23T01:46:08.166Z,20.40
2018-07-23T01:48:37.120Z,20.30
2018-07-23T01:51:05.929Z,20.30
2018-07-23T01:53:34.660Z,20.50
2018-07-23T01:56:03.534Z,20.50
2018-07-23T01:58:32.202Z,20.50
2018-07-23T02:01:06.900Z,20.50
2018-07-23T02:03:35.693Z,20.50
2018-07-23T02:06:05.100Z,20.60
2018-07-23T02:08:33.982Z,20.60
2018-07-23T02:11:02.668Z,20.60
2018-07-23T02:13:31.375Z,20.60
2018-07-23T02:16:00.211Z,20.60
2018-07-23T02:18:29.030Z,20.60
2018-07-23T02:20:57.839Z,20.60
2018-07-23T02:23:26.604Z,20.60
2018-07-23T02:25:55.660Z,20.50
2018-07-23T02:28:24.447Z,20.50
2018-07-23T02:30:53.408Z,20.50
2018-07-23T02:33:22.983Z,20.50
2018-07-23T02:35:51.806Z,20.40
2018-07-23T02:38:20.685Z,20.40
2018-07-23T02:40:49.440Z,20.40
2018-07-23T02:43:18.314Z,20.30
2018-07-23T02:45:47.120Z,20.30
2018-07-23T02:48:16.316Z,20.20
2018-07-23T02:50:45.115Z,20.30
2018-07-23T02:53:14.144Z,20.20
2018-07-23T02:55:42.883Z,20.20
2018-07-23T02:58:11.839Z,20.00
2018-07-23T03:00:40.608Z,20.00
2018-07-23T03:03:09.632Z,20.00
2018-07-23T03:05:38.334Z,20.00
2018-07-23T03:08:07.097Z,19.90
2018-07-23T03:10:35.992Z,19.90
2018-07-23T03:13:04.760Z,19.80
2018-07-23T03:15:33.803Z,19.80
2018-07-23T03:18:02.588Z,19.70
2018-07-23T03:20:31.551Z,19.70
2018-07-23T03:23:00.434Z,19.70
2018-07-23T03:25:29.274Z,19.60
2018-07-23T03:27:58.077Z,19.70
2018-07-23T03:30:26.811Z,19.60
2018-07-23T03:32:55.584Z,19.60
2018-07-23T03:35:24.403Z,19.60
2018-07-23T03:37:53.292Z,19.50
2018-07-23T03:40:22.266Z,19.50
2018-07-23T03:42:51.045Z,19.50
2018-07-23T03:45:20.196Z,19.50
2018-07-23T03:47:49.084Z,19.40
2018-07-23T03:50:18.151Z,19.40
2018-07-23T03:52:47.091Z,19.40
2018-07-23T03:55:15.975Z,19.40
2018-07-23T03:57:45.476Z,19.30
2018-07-23T04:00:14.301Z,19.10
2018-07-23T04:02:43.044Z,19.10
2018-07-23T04:05:11.813Z,19.10
2018-07-23T04:07:40.509Z,19.10
2018-07-23T04:10:09.323Z,19.00
2018-07-23T04:12:38.029Z,19.00
2018-07-23T04:15:07.382Z,19.00
2018-07-23T04:17:36.267Z,19.00
2018-07-23T04:20:05.179Z,19.00
2018-07-23T04:22:33.920Z,18.90
2018-07-23T04:25:03.036Z,18.90
2018-07-23T04:27:31.688Z,18.90
2018-07-23T04:30:01.188Z,18.90
2018-07-23T04:32:29.914Z,18.90
2018-07-23T04:34:58.751Z,18.90
2018-07-23T04:37:27.781Z,19.00
2018-07-23T04:39:56.478Z,18.90
2018-07-23T04:42:25.368Z,18.90
2018-07-23T04:44:54.033Z,18.90
2018-07-23T04:47:22.896Z,18.90
2018-07-23T04:49:51.683Z,18.90
2018-07-23T04:52:20.365Z,18.90
2018-07-23T04:54:49.164Z,19.00
2018-07-23T04:57:18.100Z,19.00
2018-07-23T04:59:46.809Z,19.10
2018-07-23T05:02:15.549Z,19.20
2018-07-23T05:04:44.319Z,19.20
2018-07-23T05:07:13.345Z,19.30
2018-07-23T05:09:42.018Z,19.30
2018-07-23T05:12:10.975Z,19.30
2018-07-23T05:14:39.788Z,19.30
2018-07-23T05:17:09.551Z,19.50
2018-07-23T05:19:39.291Z,19.90
2018-07-23T05:22:08.057Z,20.40
2018-07-23T05:24:36.991Z,21.20
2018-07-23T05:27:05.752Z,22.00
2018-07-23T05:29:34.467Z,22.40
2018-07-23T05:32:03.240Z,22.80
2018-07-23T05:34:31.992Z,22.90
2018-07-23T05:37:00.788Z,23.30
2018-07-23T05:39:29.718Z,23.60
2018-07-23T05:41:58.578Z,24.30
2018-07-23T05:44:28.069Z,24.60
2018-07-23T05:46:56.878Z,25.10
2018-07-23T05:49:25.558Z,25.40
2018-07-23T05:51:54.421Z,25.80
2018-07-23T05:54:23.184Z,26.30
2018-07-23T05:56:51.978Z,27.00
2018-07-23T05:59:21.176Z,26.90
2018-07-23T06:01:49.987Z,26.90
2018-07-23T06:04:18.846Z,27.40
2018-07-23T06:06:47.571Z,27.30
2018-07-23T06:09:16.285Z,27.60
2018-07-23T06:11:44.972Z,27.80
2018-07-23T06:14:13.776Z,27.80
2018-07-23T06:16:42.807Z,28.20
2018-07-23T06:19:12.220Z,28.10
2018-07-23T06:21:41.045Z,28.30
2018-07-23T06:24:09.990Z,27.90
2018-07-23T06:26:38.694Z,28.30
2018-07-23T06:29:07.527Z,28.40
2018-07-23T06:31:38.008Z,28.30
2018-07-23T06:34:06.769Z,28.00
2018-07-23T06:36:36.553Z,27.70
2018-07-23T06:39:09.037Z,27.70
2018-07-23T06:41:38.385Z,27.90
2018-07-23T06:44:07.687Z,28.50
2018-07-23T06:46:36.595Z,29.30
2018-07-23T06:49:05.626Z,28.40
2018-07-23T06:51:35.549Z,28.10
2018-07-23T06:54:04.434Z,28.20
2018-07-23T06:56:33.153Z,27.50
2018-07-23T06:59:08.796Z,26.50
2018-07-23T07:01:37.467Z,25.60
2018-07-23T07:04:06.190Z,25.00
2018-07-23T07:06:34.910Z,24.30
2018-07-23T07:09:03.859Z,24.00
2018-07-23T07:11:32.960Z,23.80
2018-07-23T07:14:01.707Z,23.70
2018-07-23T07:16:30.431Z,23.60
2018-07-23T07:18:59.549Z,23.70
2018-07-23T07:21:28.210Z,23.70
2018-07-23T07:23:57.282Z,23.80
2018-07-23T07:26:26.209Z,23.90
2018-07-23T07:28:55.088Z,23.80
2018-07-23T07:31:23.833Z,23.60
2018-07-23T07:33:52.608Z,23.60
2018-07-23T07:36:21.336Z,23.60
2018-07-23T07:38:50.239Z,23.60
2018-07-23T07:41:19.121Z,23.80
2018-07-23T07:43:47.986Z,24.00
2018-07-23T07:46:16.730Z,24.10
2018-07-23T07:48:45.487Z,24.00
2018-07-23T07:51:14.173Z,24.10
2018-07-23T07:53:43.141Z,24.00
2018-07-23T07:56:12.080Z,24.00
2018-07-23T07:58:41.681Z,24.00
2018-07-23T08:01:10.473Z,23.70
2018-07-23T08:03:39.269Z,23.80
2018-07-23T08:06:08.412Z,23.90
2018-07-23T08:08:37.149Z,23.70
2018-07-23T08:11:06.093Z,23.60
2018-07-23T08:13:34.972Z,23.70
2018-07-23T08:16:03.861Z,23.60
2018-07-23T08:18:32.643Z,23.70
2018-07-23T08:21:01.396Z,23.90
2018-07-23T08:23:30.168Z,24.10
2018-07-23T08:25:59.605Z,24.10
2018-07-23T08:28:28.258Z,23.90
2018-07-23T08:30:56.991Z,23.90
2018-07-23T08:33:25.830Z,24.00
2018-07-23T08:35:54.462Z,24.00
2018-07-23T08:38:23.350Z,24.10
2018-07-23T08:40:52.085Z,23.90
2018-07-23T08:43:20.951Z,24.10
2018-07-23T08:45:49.647Z,24.20
2018-07-23T08:48:18.486Z,24.30
2018-07-23T08:50:47.224Z,24.40
2018-07-23T08:53:16.097Z,24.40
2018-07-23T08:55:45.094Z,24.50
2018-07-23T08:58:13.743Z,24.60
2018-07-23T09:00:42.517Z,24.60
2018-07-23T09:03:11.475Z,24.60
2018-07-23T09:05:40.558Z,24.50
2018-07-23T09:08:09.853Z,24.50
2018-07-23T09:10:38.640Z,24.70
2018-07-23T09:13:07.397Z,24.60
2018-07-23T09:15:36.405Z,24.70
2018-07-23T09:18:06.119Z,24.70
2018-07-23T09:20:34.955Z,24.90
2018-07-23T09:23:03.798Z,24.80
2018-07-23T09:25:37.829Z,24.90
2018-07-23T09:28:07.054Z,25.10
2018-07-23T09:30:41.091Z,25.00
2018-07-23T09:33:09.873Z,25.10
2018-07-23T09:35:38.648Z,25.20
2018-07-23T09:38:07.326Z,25.10
2018-07-23T09:40:36.350Z,25.20
2018-07-23T09:43:05.160Z,25.40
2018-07-23T09:45:34.111Z,25.60
2018-07-23T09:48:02.847Z,25.50
2018-07-23T09:50:31.604Z,25.60
2018-07-23T09:53:00.537Z,25.30
2018-07-23T09:55:29.549Z,25.30
2018-07-23T09:57:58.484Z,25.50
2018-07-23T10:00:32.372Z,25.70
2018-07-23T10:03:07.560Z,25.70
2018-07-23T10:05:37.151Z,25.80
2018-07-23T10:08:06.004Z,25.90
2018-07-23T10:10:35.773Z,25.70
2018-07-23T10:13:04.633Z,25.80
2018-07-23T10:15:33.339Z,26.00
2018-07-23T10:18:02.138Z,26.00
2018-07-23T10:20:30.907Z,25.90
2018-07-23T10:22:59.644Z,25.90
2018-07-23T10:25:28.334Z,25.90
2018-07-23T10:27:57.201Z,25.80
2018-07-23T10:30:25.926Z,26.00
2018-07-23T10:32:54.851Z,25.90
2018-07-23T10:35:23.692Z,26.10
2018-07-23T10:37:52.457Z,26.20
2018-07-23T10:40:21.518Z,26.30
2018-07-23T10:42:50.295Z,26.30
2018-07-23T10:45:18.990Z,26.50
2018-07-23T10:47:48.201Z,26.70
2018-07-23T10:50:17.248Z,26.70
2018-07-23T10:52:46.670Z,26.70
2018-07-23T10:55:15.522Z,26.70
2018-07-23T10:57:44.515Z,26.80
2018-07-23T11:00:13.315Z,26.80
2018-07-23T11:02:42.059Z,26.90
2018-07-23T11:05:11.138Z,27.00
2018-07-23T11:07:40.348Z,26.80
2018-07-23T11:10:09.570Z,26.60
2018-07-23T11:12:38.636Z,26.80
2018-07-23T11:15:08.702Z,27.00
2018-07-23T11:17:38.082Z,27.00
2018-07-23T11:20:09.390Z,27.20
2018-07-23T11:22:38.345Z,27.30
2018-07-23T11:25:38.416Z,27.40
2018-07-23T11:27:36.160Z,27.40
2018-07-23T11:30:05.648Z,27.40
2018-07-23T11:32:35.337Z,27.50
2018-07-23T11:35:04.218Z,27.60
2018-07-23T11:37:33.021Z,27.50
2018-07-23T11:40:01.618Z,27.30
2018-07-23T11:42:30.552Z,27.40
2018-07-23T11:44:59.243Z,27.40
2018-07-23T11:47:27.975Z,27.30
2018-07-23T11:49:57.356Z,27.30
2018-07-23T11:52:26.225Z,27.30
2018-07-23T11:54:55.127Z,27.50
2018-07-23T11:57:24.037Z,27.20
2018-07-23T11:59:52.907Z,27.20
2018-07-23T12:02:21.738Z,27.50
2018-07-23T12:04:50.590Z,27.60
2018-07-23T12:07:19.521Z,27.60
2018-07-23T12:09:48.397Z,27.60
2018-07-23T12:12:17.434Z,27.80
2018-07-23T12:14:46.324Z,27.90
2018-07-23T12:17:15.053Z,28.00
2018-07-23T12:19:44.141Z,27.70
2018-07-23T12:22:12.923Z,27.90
2018-07-23T12:24:41.656Z,28.10
2018-07-23T12:27:10.365Z,28.40
2018-07-23T12:29:40.204Z,28.70
2018-07-23T12:32:09.041Z,28.70
2018-07-23T12:34:37.790Z,28.90
2018-07-23T12:37:06.977Z,29.10
2018-07-23T12:39:35.750Z,29.00
2018-07-23T12:42:04.621Z,29.20
2018-07-23T12:44:33.476Z,29.40
2018-07-23T12:47:02.217Z,29.50
2018-07-23T12:49:32.264Z,29.10
2018-07-23T12:52:01.081Z,28.90
2018-07-23T12:54:31.768Z,28.70
2018-07-23T12:57:00.675Z,28.60
2018-07-23T12:59:29.537Z,28.70
2018-07-23T13:01:58.296Z,28.60
2018-07-23T13:04:27.186Z,28.50
2018-07-23T13:06:56.487Z,28.50
2018-07-23T13:09:25.274Z,28.70
2018-07-23T13:11:54.031Z,28.80
2018-07-23T13:14:22.766Z,28.70
2018-07-23T13:16:51.617Z,28.80
2018-07-23T13:19:20.406Z,29.00
2018-07-23T13:21:49.830Z,29.00
2018-07-23T13:24:18.513Z,29.00
2018-07-23T13:26:48.162Z,29.00
2018-07-23T13:29:16.871Z,29.00
2018-07-23T13:31:45.694Z,28.80
2018-07-23T13:34:14.478Z,28.80
2018-07-23T13:36:43.129Z,28.80
2018-07-23T13:39:13.492Z,29.00
2018-07-23T13:41:42.677Z,28.90
2018-07-23T13:44:12.367Z,28.70
2018-07-23T13:46:42.033Z,28.80
2018-07-23T13:49:11.669Z,28.80
2018-07-23T13:51:40.457Z,28.90
2018-07-23T13:54:09.373Z,29.00
2018-07-23T13:56:38.453Z,29.00
2018-07-23T13:59:07.178Z,29.10
2018-07-23T14:01:36.232Z,29.20
2018-07-23T14:04:04.968Z,29.20
2018-07-23T14:06:33.871Z,29.10
2018-07-23T14:09:03.234Z,29.10
2018-07-23T14:11:32.151Z,28.90
2018-07-23T14:14:00.955Z,28.80
2018-07-23T14:16:29.936Z,28.60
2018-07-23T14:18:58.698Z,28.40
2018-07-23T14:21:27.689Z,28.30
2018-07-23T14:23:56.428Z,28.40
2018-07-23T14:26:25.268Z,28.60
2018-07-23T14:28:55.515Z,28.70
2018-07-23T14:31:24.457Z,28.80
2018-07-23T14:33:54.371Z,29.00
2018-07-23T14:36:23.071Z,29.10
2018-07-23T14:38:54.073Z,29.10
2018-07-23T14:41:23.210Z,29.20
2018-07-23T14:43:52.005Z,29.00
2018-07-23T14:46:21.360Z,29.00
2018-07-23T14:48:50.606Z,29.10
2018-07-23T14:51:19.434Z,29.20
2018-07-23T14:53:48.221Z,29.20
2018-07-23T14:56:17.036Z,29.30
2018-07-23T14:58:46.487Z,29.20
2018-07-23T15:01:15.472Z,29.20
2018-07-23T15:03:44.255Z,29.10
2018-07-23T15:06:13.199Z,29.20
2018-07-23T15:08:42.251Z,29.20
2018-07-23T15:11:11.003Z,29.40
2018-07-23T15:13:39.865Z,29.50
2018-07-23T15:16:09.208Z,29.70
2018-07-23T15:18:37.929Z,29.80
2018-07-23T15:21:06.680Z,29.80
2018-07-23T15:23:36.099Z,29.90
2018-07-23T15:26:04.869Z,30.00
2018-07-23T15:28:33.602Z,30.00
2018-07-23T15:31:02.398Z,30.00
2018-07-23T15:33:31.183Z,30.00
2018-07-23T15:36:00.795Z,30.00
2018-07-23T15:38:29.576Z,29.90
2018-07-23T15:40:59.127Z,29.90
2018-07-23T15:43:27.863Z,29.90
2018-07-23T15:45:56.826Z,29.90
2018-07-23T15:48:25.565Z,29.80
2018-07-23T15:50:54.557Z,29.90
2018-07-23T15:53:24.008Z,29.90
2018-07-23T15:55:52.840Z,29.90
2018-07-23T15:58:22.531Z,30.00
2018-07-23T16:00:51.340Z,29.80
2018-07-23T16:03:20.411Z,29.50
2018-07-23T16:05:49.290Z,29.60
2018-07-23T16:08:18.085Z,29.60
2018-07-23T16:10:46.958Z,29.50
2018-07-23T16:13:15.627Z,29.50
2018-07-23T16:15:44.378Z,29.60
2018-07-23T16:18:12.972Z,29.50
2018-07-23T16:20:41.697Z,29.60
2018-07-23T16:23:10.525Z,29.60
2018-07-23T16:25:39.497Z,29.60
2018-07-23T16:28:08.581Z,29.60
2018-07-23T16:30:37.555Z,29.80
2018-07-23T16:33:06.473Z,29.80
2018-07-23T16:35:35.262Z,29.80
2018-07-23T16:38:05.940Z,29.90
2018-07-23T16:40:34.856Z,30.00
2018-07-23T16:43:04.154Z,30.00
2018-07-23T16:45:32.890Z,30.00
2018-07-23T16:48:01.675Z,30.00
2018-07-23T16:50:30.452Z,30.00
2018-07-23T16:53:00.256Z,30.00
2018-07-23T16:55:30.054Z,30.20
2018-07-23T16:58:01.895Z,30.20
2018-07-23T17:00:30.872Z,30.30
2018-07-23T17:03:02.727Z,30.30
2018-07-23T17:05:31.968Z,30.40
2018-07-23T17:08:06.642Z,30.40
2018-07-23T17:10:40.417Z,30.20
2018-07-23T17:13:29.242Z,30.30
2018-07-23T17:15:58.188Z,30.70
2018-07-23T17:21:20.503Z,33.70
2018-07-23T17:24:06.994Z,35.00
2018-07-23T17:26:35.811Z,36.10
2018-07-23T17:29:04.663Z,37.00
2018-07-23T17:31:40.864Z,37.20
2018-07-23T17:34:12.547Z,37.40
2018-07-23T17:36:42.333Z,37.60
2018-07-23T17:39:12.692Z,38.00
2018-07-23T17:44:23.523Z,37.70
2018-07-23T17:46:52.553Z,37.70
2018-07-23T17:49:25.773Z,37.20
2018-07-23T17:51:54.608Z,36.70
2018-07-23T17:54:24.124Z,36.40
2018-07-23T17:56:52.887Z,35.80
2018-07-23T17:59:21.978Z,35.10
2018-07-23T18:01:50.892Z,34.00
2018-07-23T18:04:19.676Z,33.60
2018-07-23T18:06:48.428Z,33.40
2018-07-23T18:09:17.027Z,32.80
2018-07-23T18:11:45.696Z,32.50
2018-07-23T18:14:14.424Z,32.40
2018-07-23T18:16:43.130Z,32.20
2018-07-23T18:19:12.385Z,31.80
2018-07-23T18:21:41.132Z,31.40
2018-07-23T18:24:09.896Z,31.00
2018-07-23T18:26:38.904Z,30.70
2018-07-23T18:29:07.679Z,30.50
2018-07-23T18:31:36.565Z,30.20
2018-07-23T18:34:05.253Z,30.00
2018-07-23T18:36:33.931Z,29.80
2018-07-23T18:39:02.741Z,29.70
2018-07-23T18:41:31.494Z,29.50
2018-07-23T18:44:00.178Z,29.40
2018-07-23T18:46:29.062Z,29.10
2018-07-23T18:49:47.796Z,29.10
2018-07-23T18:52:18.402Z,29.00
2018-07-23T18:54:48.316Z,28.90
2018-07-23T18:57:17.519Z,28.90
2018-07-23T18:59:46.355Z,28.90
2018-07-23T19:02:16.379Z,28.80
2018-07-23T19:04:45.079Z,28.70
2018-07-23T19:07:13.939Z,28.70
2018-07-23T19:09:42.753Z,28.60
2018-07-23T19:12:12.092Z,28.50
2018-07-23T19:14:40.802Z,28.40
2018-07-23T19:17:10.839Z,28.30
2018-07-23T19:19:39.565Z,28.20
2018-07-23T19:22:08.302Z,28.20
2018-07-23T19:24:37.475Z,28.10
2018-07-23T19:27:06.595Z,28.00
2018-07-23T19:29:35.234Z,27.90
2018-07-23T19:32:04.277Z,27.80
2018-07-23T19:34:33.059Z,27.70
2018-07-23T19:37:01.685Z,27.60
2018-07-23T19:39:30.434Z,27.50
2018-07-23T19:41:59.111Z,27.40
2018-07-23T19:44:27.904Z,27.30
2018-07-23T19:46:56.657Z,27.20
2018-07-23T19:49:25.725Z,27.20
2018-07-23T19:51:54.478Z,27.10
2018-07-23T19:54:23.128Z,27.00
2018-07-23T19:56:52.157Z,27.00
2018-07-23T19:59:21.340Z,27.00
2018-07-23T20:01:50.074Z,26.90
2018-07-23T20:04:18.893Z,26.90
2018-07-23T20:06:47.580Z,26.80
2018-07-23T20:09:16.294Z,26.70
2018-07-23T20:11:44.935Z,26.60
2018-07-23T20:14:13.674Z,26.60
2018-07-23T20:16:43.036Z,26.50
2018-07-23T20:19:12.144Z,26.40
2018-07-23T20:21:40.764Z,26.30
2018-07-23T20:24:11.685Z,26.20
2018-07-23T20:26:40.564Z,26.20
2018-07-23T20:29:10.616Z,26.10
2018-07-23T20:31:39.344Z,26.00
2018-07-23T20:34:08.506Z,25.90
2018-07-23T20:36:37.239Z,25.80
2018-07-23T20:39:07.580Z,25.80
2018-07-23T20:41:36.231Z,25.70
2018-07-23T20:44:04.935Z,25.70
2018-07-23T20:46:33.631Z,25.70
2018-07-23T20:49:02.415Z,25.60
2018-07-23T20:51:31.500Z,25.50
2018-07-23T20:54:00.154Z,25.50
2018-07-23T20:56:29.256Z,25.40
2018-07-23T20:58:57.936Z,25.40
2018-07-23T21:01:27.494Z,25.40
2018-07-23T21:03:56.205Z,25.40
2018-07-23T21:06:26.497Z,25.30
2018-07-23T21:08:58.009Z,25.30
2018-07-23T21:11:26.849Z,25.20
2018-07-23T21:13:55.486Z,25.20
2018-07-23T21:16:24.259Z,25.20
2018-07-23T21:18:52.993Z,25.20
2018-07-23T21:21:21.763Z,25.20
2018-07-23T21:23:50.474Z,25.10
2018-07-23T21:26:19.098Z,25.10
2018-07-23T21:28:47.871Z,25.00
2018-07-23T21:31:16.592Z,25.00
2018-07-23T21:33:45.260Z,24.90
2018-07-23T21:36:13.948Z,24.90
2018-07-23T21:38:42.618Z,24.80
2018-07-23T21:41:11.203Z,24.70
2018-07-23T21:43:40.014Z,24.70
2018-07-23T21:46:08.730Z,24.60
2018-07-23T21:48:37.483Z,24.50
2018-07-23T21:51:06.374Z,24.50
2018-07-23T21:53:35.145Z,24.40
2018-07-23T21:56:03.946Z,24.40
2018-07-23T21:58:33.131Z,24.30
2018-07-23T22:01:01.948Z,24.30
2018-07-23T22:03:31.112Z,24.30
2018-07-23T22:05:59.975Z,24.20
2018-07-23T22:08:28.722Z,24.20
2018-07-23T22:10:57.578Z,24.10
2018-07-23T22:13:27.729Z,24.10
2018-07-23T22:15:56.414Z,24.10
2018-07-23T22:18:25.394Z,24.10
2018-07-23T22:20:54.176Z,24.10
2018-07-23T22:23:22.863Z,24.00
2018-07-23T22:25:51.589Z,24.00
2018-07-23T22:28:20.222Z,24.00
2018-07-23T22:30:48.928Z,23.90
2018-07-23T22:33:17.585Z,23.90
2018-07-23T22:35:46.216Z,23.80
2018-07-23T22:38:14.968Z,23.80
2018-07-23T22:40:43.608Z,23.70
2018-07-23T22:43:12.356Z,23.60
2018-07-23T22:45:41.044Z,23.40
2018-07-23T22:48:09.756Z,23.40
2018-07-23T22:50:38.364Z,23.40
2018-07-23T22:53:07.052Z,23.30
2018-07-23T22:55:36.051Z,23.30
2018-07-23T22:58:04.973Z,23.20
2018-07-23T23:00:34.245Z,23.10
2018-07-23T23:03:02.998Z,23.10
2018-07-23T23:05:31.675Z,23.00
2018-07-23T23:08:00.421Z,23.00
2018-07-23T23:10:28.997Z,23.00
2018-07-23T23:12:57.736Z,22.90
2018-07-23T23:15:26.345Z,22.80
2018-07-23T23:17:55.006Z,22.70
2018-07-23T23:20:23.664Z,22.70
2018-07-23T23:22:52.514Z,22.60
2018-07-23T23:25:25.585Z,22.50
2018-07-23T23:27:54.790Z,22.40
2018-07-23T23:30:23.464Z,22.40
2018-07-23T23:32:53.987Z,22.30
2018-07-23T23:35:22.898Z,22.30
2018-07-23T23:37:51.673Z,22.30
2018-07-23T23:40:20.378Z,22.30
2018-07-23T23:42:49.962Z,22.30
2018-07-23T23:45:18.605Z,22.30
2018-07-23T23:47:47.259Z,22.30
2018-07-23T23:50:18.449Z,22.30
2018-07-23T23:52:47.168Z,22.20
2018-07-23T23:55:17.050Z,22.10
2018-07-23T23:57:47.849Z,22.10
